createdAt,value
2018-02-09T00:00:35.141Z,972.77
2018-02-09T00:01:35.122Z,972.77
2018-02-09T00:02:35.106Z,972.78
2018-02-09T00:03:35.088Z,972.75
2018-02-09T00:04:35.081Z,972.76
2018-02-09T00:05:35.055Z,972.75
2018-02-09T00:06:35.037Z,972.71
2018-02-09T00:07:35.017Z,972.72
2018-02-09T00:08:35.007Z,972.70
2018-02-09T00:09:34.980Z,972.74
2018-02-09T00:10:34.967Z,972.72
2018-02-09T00:11:34.944Z,972.72
2018-02-09T00:12:34.936Z,972.74
2018-02-09T00:13:34.915Z,972.74
2018-02-09T00:14:34.894Z,972.73
2018-02-09T00:15:34.874Z,972.72
2018-02-09T00:16:34.862Z,972.76
2018-02-09T00:17:34.848Z,972.71
2018-02-09T00:18:34.820Z,972.68
2018-02-09T00:19:34.804Z,972.65
2018-02-09T00:20:34.784Z,972.68
2018-02-09T00:21:34.776Z,972.66
2018-02-09T00:22:34.754Z,972.65
2018-02-09T00:23:34.730Z,972.67
2018-02-09T00:24:34.711Z,972.66
2018-02-09T00:25:34.700Z,972.64
2018-02-09T00:26:34.683Z,972.67
2018-02-09T00:27:34.660Z,972.64
2018-02-09T00:28:34.648Z,972.62
2018-02-09T00:29:34.628Z,972.57
2018-02-09T00:30:34.608Z,972.60
2018-02-09T00:31:34.593Z,972.57
2018-02-09T00:32:34.572Z,972.58
2018-02-09T00:33:34.556Z,972.53
2018-02-09T00:34:34.539Z,972.54
2018-02-09T00:35:34.522Z,972.55
2018-02-09T00:36:34.498Z,972.58
2018-02-09T00:37:34.479Z,972.57
2018-02-09T00:38:34.464Z,972.56
2018-02-09T00:39:34.445Z,972.55
2018-02-09T00:40:34.427Z,972.56
2018-02-09T00:41:34.409Z,972.55
2018-02-09T00:42:34.391Z,972.54
2018-02-09T00:43:34.374Z,972.54
2018-02-09T00:44:34.356Z,972.55
2018-02-09T00:45:34.345Z,972.57
2018-02-09T00:46:34.324Z,972.58
2018-02-09T00:47:34.303Z,972.57
2018-02-09T00:48:34.293Z,972.57
2018-02-09T00:49:34.274Z,972.57
2018-02-09T00:50:34.251Z,972.54
2018-02-09T00:51:34.232Z,972.53
2018-02-09T00:52:34.218Z,972.58
2018-02-09T00:53:34.201Z,972.55
2018-02-09T00:54:34.178Z,972.58
2018-02-09T00:55:34.161Z,972.57
2018-02-09T00:56:34.149Z,972.59
2018-02-09T00:57:34.131Z,972.58
2018-02-09T00:58:34.114Z,972.59
2018-02-09T00:59:34.096Z,972.55
2018-02-09T01:00:34.072Z,972.53
2018-02-09T01:01:34.057Z,972.55
2018-02-09T01:02:34.037Z,972.54
2018-02-09T01:03:34.017Z,972.55
2018-02-09T01:04:34.008Z,972.51
2018-02-09T01:05:33.986Z,972.50
2018-02-09T01:06:33.963Z,972.52
2018-02-09T01:07:33.959Z,972.46
2018-02-09T01:08:33.930Z,972.50
2018-02-09T01:09:33.916Z,972.52
2018-02-09T01:10:33.892Z,972.48
2018-02-09T01:11:33.874Z,972.48
2018-02-09T01:12:33.859Z,972.48
2018-02-09T01:13:33.839Z,972.45
2018-02-09T01:14:33.825Z,972.47
2018-02-09T01:15:33.802Z,972.45
2018-02-09T01:16:33.784Z,972.44
2018-02-09T01:17:33.772Z,972.42
2018-02-09T01:18:33.751Z,972.37
2018-02-09T01:19:33.737Z,972.45
2018-02-09T01:20:33.711Z,972.43
2018-02-09T01:21:33.694Z,972.41
2018-02-09T01:22:33.679Z,972.40
2018-02-09T01:23:33.657Z,972.43
2018-02-09T01:24:33.639Z,972.39
2018-02-09T01:25:33.626Z,972.44
2018-02-09T01:26:33.608Z,972.43
2018-02-09T01:27:33.585Z,972.44
2018-02-09T01:28:33.571Z,972.45
2018-02-09T01:29:33.550Z,972.42
2018-02-09T01:30:33.530Z,972.45
2018-02-09T01:31:33.513Z,972.40
2018-02-09T01:32:33.500Z,972.42
2018-02-09T01:33:33.484Z,972.41
2018-02-09T01:34:33.467Z,972.41
2018-02-09T01:35:33.442Z,972.41
2018-02-09T01:36:33.426Z,972.40
2018-02-09T01:37:33.408Z,972.36
2018-02-09T01:38:33.387Z,972.34
2018-02-09T01:39:33.370Z,972.39
2018-02-09T01:40:33.355Z,972.40
2018-02-09T01:41:33.334Z,972.40
2018-02-09T01:42:33.322Z,972.37
2018-02-09T01:43:33.298Z,972.36
2018-02-09T01:44:33.279Z,972.37
2018-02-09T01:45:33.263Z,972.40
2018-02-09T01:46:33.253Z,972.36
2018-02-09T01:47:33.233Z,972.36
2018-02-09T01:48:33.211Z,972.37
2018-02-09T01:49:33.191Z,972.36
2018-02-09T01:50:33.172Z,972.34
2018-02-09T01:51:33.156Z,972.36
2018-02-09T01:52:33.136Z,972.34
2018-02-09T01:53:33.119Z,972.38
2018-02-09T01:54:33.107Z,972.36
2018-02-09T01:55:33.088Z,972.34
2018-02-09T01:56:33.072Z,972.36
2018-02-09T01:57:33.054Z,972.37
2018-02-09T01:58:33.030Z,972.34
2018-02-09T01:59:33.014Z,972.36
2018-02-09T02:00:32.995Z,972.37
2018-02-09T02:01:32.974Z,972.38
2018-02-09T02:02:32.962Z,972.36
2018-02-09T02:03:32.939Z,972.37
2018-02-09T02:04:32.925Z,972.37
2018-02-09T02:05:32.911Z,972.36
2018-02-09T02:06:32.944Z,972.33
2018-02-09T02:07:32.869Z,972.38
2018-02-09T02:08:32.850Z,972.36
2018-02-09T02:09:32.831Z,972.32
2018-02-09T02:10:32.819Z,972.33
2018-02-09T02:11:32.799Z,972.32
2018-02-09T02:12:32.777Z,972.35
2018-02-09T02:13:32.767Z,972.33
2018-02-09T02:14:32.745Z,972.36
2018-02-09T02:15:32.722Z,972.36
2018-02-09T02:16:32.705Z,972.34
2018-02-09T02:17:32.693Z,972.28
2018-02-09T02:18:32.669Z,972.29
2018-02-09T02:19:32.653Z,972.31
2018-02-09T02:20:32.635Z,972.28
2018-02-09T02:21:32.619Z,972.26
2018-02-09T02:22:32.601Z,972.28
2018-02-09T02:23:32.584Z,972.23
2018-02-09T02:24:32.561Z,972.24
2018-02-09T02:25:32.552Z,972.20
2018-02-09T02:26:32.525Z,972.24
2018-02-09T02:27:32.512Z,972.23
2018-02-09T02:28:32.492Z,972.24
2018-02-09T02:29:32.481Z,972.21
2018-02-09T02:30:32.453Z,972.14
2018-02-09T02:31:32.436Z,972.18
2018-02-09T02:32:32.420Z,972.14
2018-02-09T02:33:32.400Z,972.16
2018-02-09T02:34:32.388Z,972.19
2018-02-09T02:35:32.374Z,972.15
2018-02-09T02:36:32.345Z,972.16
2018-02-09T02:37:32.326Z,972.16
2018-02-09T02:38:32.308Z,972.17
2018-02-09T02:39:32.290Z,972.13
2018-02-09T02:40:32.279Z,972.12
2018-02-09T02:41:32.256Z,972.10
2018-02-09T02:42:32.249Z,972.08
2018-02-09T02:43:32.226Z,972.07
2018-02-09T02:44:32.213Z,972.08
2018-02-09T02:45:32.183Z,972.12
2018-02-09T02:46:32.167Z,972.09
2018-02-09T02:47:32.149Z,972.08
2018-02-09T02:48:32.132Z,972.11
2018-02-09T02:49:32.113Z,972.07
2018-02-09T02:50:32.096Z,972.08
2018-02-09T02:51:32.076Z,972.09
2018-02-09T02:52:32.073Z,972.08
2018-02-09T02:53:32.041Z,972.08
2018-02-09T02:54:32.023Z,972.04
2018-02-09T02:55:32.011Z,972.06
2018-02-09T02:56:31.987Z,972.07
2018-02-09T02:57:31.979Z,972.06
2018-02-09T02:58:31.953Z,972.05
2018-02-09T02:59:31.931Z,972.01
2018-02-09T03:00:31.919Z,971.98
2018-02-09T03:01:31.897Z,971.99
2018-02-09T03:02:31.880Z,971.98
2018-02-09T03:03:31.910Z,972.01
2018-02-09T03:04:31.843Z,971.95
2018-02-09T03:05:31.825Z,971.94
2018-02-09T03:06:31.813Z,971.96
2018-02-09T03:07:31.788Z,971.95
2018-02-09T03:08:31.771Z,971.88
2018-02-09T03:09:31.752Z,971.95
2018-02-09T03:10:31.734Z,971.93
2018-02-09T03:11:31.721Z,971.94
2018-02-09T03:12:31.705Z,971.96
2018-02-09T03:13:31.681Z,971.89
2018-02-09T03:14:31.659Z,971.95
2018-02-09T03:15:31.643Z,971.92
2018-02-09T03:16:31.625Z,971.97
2018-02-09T03:17:31.610Z,971.92
2018-02-09T03:18:31.588Z,971.94
2018-02-09T03:19:31.576Z,971.93
2018-02-09T03:20:31.553Z,971.94
2018-02-09T03:21:31.535Z,971.94
2018-02-09T03:22:31.515Z,971.96
2018-02-09T03:23:31.498Z,971.94
2018-02-09T03:24:31.479Z,971.94
2018-02-09T03:25:31.463Z,971.94
2018-02-09T03:26:31.449Z,971.97
2018-02-09T03:27:31.424Z,971.97
2018-02-09T03:28:31.405Z,971.98
2018-02-09T03:29:31.393Z,971.97
2018-02-09T03:30:31.368Z,971.96
2018-02-09T03:31:31.359Z,971.99
2018-02-09T03:32:31.338Z,972.00
2018-02-09T03:33:31.315Z,971.98
2018-02-09T03:34:31.309Z,971.96
2018-02-09T03:35:31.277Z,971.93
2018-02-09T03:36:31.261Z,971.98
2018-02-09T03:37:31.248Z,971.94
2018-02-09T03:38:31.222Z,971.94
2018-02-09T03:39:31.206Z,971.91
2018-02-09T03:40:31.200Z,971.92
2018-02-09T03:41:31.172Z,971.94
2018-02-09T03:42:31.159Z,971.94
2018-02-09T03:43:31.134Z,971.89
2018-02-09T03:44:31.117Z,971.91
2018-02-09T03:45:31.098Z,971.89
2018-02-09T03:46:31.080Z,971.96
2018-02-09T03:47:31.060Z,971.90
2018-02-09T03:48:31.043Z,971.91
2018-02-09T03:49:31.029Z,971.90
2018-02-09T03:50:31.008Z,971.88
2018-02-09T03:51:30.995Z,971.89
2018-02-09T03:52:30.975Z,971.88
2018-02-09T03:53:30.962Z,971.88
2018-02-09T03:54:30.935Z,971.86
2018-02-09T03:55:30.932Z,971.86
2018-02-09T03:56:30.899Z,971.89
2018-02-09T03:57:30.882Z,971.88
2018-02-09T03:58:30.874Z,971.87
2018-02-09T03:59:30.845Z,971.90
2018-02-09T04:00:30.827Z,971.83
2018-02-09T04:01:30.810Z,971.86
2018-02-09T04:02:30.796Z,971.84
2018-02-09T04:03:30.778Z,971.90
2018-02-09T04:04:30.754Z,971.88
2018-02-09T04:05:30.738Z,971.88
2018-02-09T04:06:30.719Z,971.85
2018-02-09T04:07:30.703Z,971.88
2018-02-09T04:08:30.690Z,971.85
2018-02-09T04:09:30.673Z,971.88
2018-02-09T04:10:30.653Z,971.87
2018-02-09T04:11:30.629Z,971.91
2018-02-09T04:12:30.619Z,971.92
2018-02-09T04:13:30.622Z,971.86
2018-02-09T04:14:30.578Z,971.86
2018-02-09T04:15:30.557Z,971.90
2018-02-09T04:16:30.539Z,971.88
2018-02-09T04:17:30.530Z,971.91
2018-02-09T04:18:30.507Z,971.92
2018-02-09T04:19:30.488Z,971.92
2018-02-09T04:20:30.469Z,971.90
2018-02-09T04:21:30.454Z,971.88
2018-02-09T04:22:30.441Z,971.85
2018-02-09T04:23:30.420Z,971.89
2018-02-09T04:24:30.407Z,971.86
2018-02-09T04:25:30.385Z,971.89
2018-02-09T04:26:30.367Z,971.84
2018-02-09T04:27:30.343Z,971.86
2018-02-09T04:28:30.323Z,971.89
2018-02-09T04:29:30.307Z,971.87
2018-02-09T04:30:30.289Z,971.82
2018-02-09T04:31:30.277Z,971.83
2018-02-09T04:32:30.253Z,971.85
2018-02-09T04:33:30.235Z,971.82
2018-02-09T04:34:30.218Z,971.84
2018-02-09T04:35:30.200Z,971.87
2018-02-09T04:36:30.188Z,971.83
2018-02-09T04:37:30.165Z,971.86
2018-02-09T04:38:30.151Z,971.88
2018-02-09T04:39:30.130Z,971.85
2018-02-09T04:40:30.113Z,971.85
2018-02-09T04:41:30.093Z,971.87
2018-02-09T04:42:30.075Z,971.86
2018-02-09T04:43:30.055Z,971.84
2018-02-09T04:44:30.039Z,971.87
2018-02-09T04:45:30.023Z,971.84
2018-02-09T04:46:30.009Z,971.86
2018-02-09T04:47:29.985Z,971.81
2018-02-09T04:48:29.970Z,971.82
2018-02-09T04:49:29.951Z,971.79
2018-02-09T04:50:29.940Z,971.79
2018-02-09T04:51:29.912Z,971.79
2018-02-09T04:52:29.895Z,971.81
2018-02-09T04:53:29.884Z,971.75
2018-02-09T04:54:29.860Z,971.77
2018-02-09T04:55:29.842Z,971.77
2018-02-09T04:56:29.829Z,971.73
2018-02-09T04:57:29.813Z,971.75
2018-02-09T04:58:29.791Z,971.72
2018-02-09T04:59:29.776Z,971.74
2018-02-09T05:00:29.758Z,971.74
2018-02-09T05:01:29.738Z,971.76
2018-02-09T05:02:29.718Z,971.74
2018-02-09T05:03:29.701Z,971.76
2018-02-09T05:04:29.688Z,971.77
2018-02-09T05:05:29.664Z,971.77
2018-02-09T05:06:29.652Z,971.78
2018-02-09T05:07:29.628Z,971.78
2018-02-09T05:08:29.613Z,971.77
2018-02-09T05:09:29.597Z,971.74
2018-02-09T05:10:29.575Z,971.78
2018-02-09T05:11:29.560Z,971.73
2018-02-09T05:12:29.542Z,971.76
2018-02-09T05:13:29.520Z,971.72
2018-02-09T05:14:29.508Z,971.72
2018-02-09T05:15:29.485Z,971.75
2018-02-09T05:16:29.466Z,971.77
2018-02-09T05:17:29.450Z,971.77
2018-02-09T05:18:29.429Z,971.79
2018-02-09T05:19:29.417Z,971.82
2018-02-09T05:20:29.395Z,971.77
2018-02-09T05:21:29.375Z,971.81
2018-02-09T05:22:29.357Z,971.79
2018-02-09T05:23:29.344Z,971.79
2018-02-09T05:24:29.322Z,971.76
2018-02-09T05:25:29.302Z,971.76
2018-02-09T05:26:29.291Z,971.77
2018-02-09T05:27:29.264Z,971.77
2018-02-09T05:28:29.259Z,971.76
2018-02-09T05:29:29.231Z,971.79
2018-02-09T05:30:29.210Z,971.75
2018-02-09T05:31:29.194Z,971.77
2018-02-09T05:32:29.174Z,971.72
2018-02-09T05:33:29.156Z,971.76
2018-02-09T05:34:29.147Z,971.73
2018-02-09T05:35:29.127Z,971.74
2018-02-09T05:36:29.111Z,971.70
2018-02-09T05:37:29.083Z,971.75
2018-02-09T05:38:29.070Z,971.74
2018-02-09T05:39:29.046Z,971.70
2018-02-09T05:40:29.026Z,971.71
2018-02-09T05:41:29.009Z,971.69
2018-02-09T05:42:28.995Z,971.69
2018-02-09T05:43:28.970Z,971.71
2018-02-09T05:44:28.949Z,971.71
2018-02-09T05:45:28.932Z,971.71
2018-02-09T05:46:28.935Z,971.68
2018-02-09T05:47:28.896Z,971.74
2018-02-09T05:48:28.877Z,971.73
2018-02-09T05:49:28.859Z,971.74
2018-02-09T05:50:28.842Z,971.71
2018-02-09T05:51:28.826Z,971.71
2018-02-09T05:52:28.803Z,971.70
2018-02-09T05:53:28.788Z,971.69
2018-02-09T05:54:28.766Z,971.73
2018-02-09T05:55:28.748Z,971.69
2018-02-09T05:56:28.736Z,971.72
2018-02-09T05:57:28.713Z,971.73
2018-02-09T05:58:28.692Z,971.71
2018-02-09T05:59:28.672Z,971.68
2018-02-09T06:00:28.654Z,971.67
2018-02-09T06:01:28.641Z,971.67
2018-02-09T06:02:28.622Z,971.68
2018-02-09T06:03:28.607Z,971.65
2018-02-09T06:04:28.586Z,971.64
2018-02-09T06:05:28.677Z,971.67
2018-02-09T06:06:28.559Z,971.64
2018-02-09T06:07:28.540Z,971.65
2018-02-09T06:08:28.517Z,971.64
2018-02-09T06:09:28.492Z,971.61
2018-02-09T06:10:28.477Z,971.68
2018-02-09T06:11:28.456Z,971.62
2018-02-09T06:12:28.440Z,971.65
2018-02-09T06:13:28.427Z,971.62
2018-02-09T06:14:28.402Z,971.64
2018-02-09T06:15:28.381Z,971.63
2018-02-09T06:16:28.361Z,971.61
2018-02-09T06:17:28.347Z,971.62
2018-02-09T06:18:28.321Z,971.62
2018-02-09T06:19:28.302Z,971.62
2018-02-09T06:20:28.286Z,971.60
2018-02-09T06:21:28.269Z,971.62
2018-02-09T06:22:28.245Z,971.60
2018-02-09T06:23:28.236Z,971.67
2018-02-09T06:24:28.217Z,971.65
2018-02-09T06:25:28.199Z,971.63
2018-02-09T06:26:28.178Z,971.62
2018-02-09T06:27:28.156Z,971.58
2018-02-09T06:28:28.137Z,971.61
2018-02-09T06:29:28.118Z,971.62
2018-02-09T06:30:28.100Z,971.58
2018-02-09T06:31:28.080Z,971.58
2018-02-09T06:32:28.070Z,971.56
2018-02-09T06:33:28.046Z,971.58
2018-02-09T06:34:28.031Z,971.61
2018-02-09T06:35:28.009Z,971.58
2018-02-09T06:36:27.996Z,971.57
2018-02-09T06:37:27.972Z,971.58
2018-02-09T06:38:27.957Z,971.59
2018-02-09T06:39:27.942Z,971.58
2018-02-09T06:40:27.921Z,971.59
2018-02-09T06:41:27.902Z,971.63
2018-02-09T06:42:27.886Z,971.60
2018-02-09T06:43:27.870Z,971.63
2018-02-09T06:44:27.844Z,971.62
2018-02-09T06:45:27.827Z,971.63
2018-02-09T06:46:27.810Z,971.62
2018-02-09T06:47:27.794Z,971.62
2018-02-09T06:48:27.779Z,971.62
2018-02-09T06:49:27.756Z,971.63
2018-02-09T06:50:27.740Z,971.66
2018-02-09T06:51:27.722Z,971.63
2018-02-09T06:52:27.702Z,971.64
2018-02-09T06:53:27.686Z,971.64
2018-02-09T06:54:27.664Z,971.63
2018-02-09T06:55:27.648Z,971.59
2018-02-09T06:56:27.628Z,971.58
2018-02-09T06:57:27.609Z,971.60
2018-02-09T06:58:27.595Z,971.58
2018-02-09T06:59:27.572Z,971.54
2018-02-09T07:00:27.554Z,971.52
2018-02-09T07:01:27.536Z,971.53
2018-02-09T07:02:27.522Z,971.52
2018-02-09T07:03:27.500Z,971.54
2018-02-09T07:04:27.486Z,971.51
2018-02-09T07:05:27.461Z,971.52
2018-02-09T07:06:27.444Z,971.51
2018-02-09T07:07:27.425Z,971.54
2018-02-09T07:08:27.407Z,971.50
2018-02-09T07:09:27.392Z,971.50
2018-02-09T07:10:27.370Z,971.46
2018-02-09T07:11:27.353Z,971.50
2018-02-09T07:12:27.334Z,971.49
2018-02-09T07:13:27.319Z,971.47
2018-02-09T07:14:27.299Z,971.49
2018-02-09T07:15:27.280Z,971.48
2018-02-09T07:16:27.268Z,971.49
2018-02-09T07:17:27.244Z,971.43
2018-02-09T07:18:27.226Z,971.45
2018-02-09T07:19:27.208Z,971.47
2018-02-09T07:20:27.196Z,971.50
2018-02-09T07:21:27.174Z,971.50
2018-02-09T07:22:27.151Z,971.55
2018-02-09T07:23:27.133Z,971.52
2018-02-09T07:24:27.123Z,971.55
2018-02-09T07:25:27.099Z,971.55
2018-02-09T07:26:27.082Z,971.51
2018-02-09T07:27:27.060Z,971.52
2018-02-09T07:28:27.051Z,971.48
2018-02-09T07:29:27.035Z,971.55
2018-02-09T07:30:27.013Z,971.54
2018-02-09T07:31:26.994Z,971.53
2018-02-09T07:32:26.970Z,971.56
2018-02-09T07:33:26.951Z,971.50
2018-02-09T07:34:26.938Z,971.48
2018-02-09T07:35:26.915Z,971.51
2018-02-09T07:36:26.898Z,971.54
2018-02-09T07:37:26.882Z,971.56
2018-02-09T07:38:26.869Z,971.52
2018-02-09T07:39:26.843Z,971.56
2018-02-09T07:40:26.830Z,971.54
2018-02-09T07:41:26.807Z,971.51
2018-02-09T07:42:26.788Z,971.55
2018-02-09T07:43:26.773Z,971.57
2018-02-09T07:44:26.752Z,971.56
2018-02-09T07:45:26.733Z,971.54
2018-02-09T07:46:26.714Z,971.53
2018-02-09T07:47:26.696Z,971.55
2018-02-09T07:48:26.685Z,971.56
2018-02-09T07:49:26.660Z,971.54
2018-02-09T07:50:26.645Z,971.57
2018-02-09T07:51:26.623Z,971.55
2018-02-09T07:52:26.605Z,971.53
2018-02-09T07:53:26.592Z,971.57
2018-02-09T07:54:26.568Z,971.54
2018-02-09T07:55:26.555Z,971.54
2018-02-09T07:56:26.533Z,971.57
2018-02-09T07:57:26.515Z,971.54
2018-02-09T07:58:26.505Z,971.55
2018-02-09T07:59:26.479Z,971.49
2018-02-09T08:00:26.469Z,971.50
2018-02-09T08:01:26.445Z,971.54
2018-02-09T08:02:26.427Z,971.49
2018-02-09T08:03:26.411Z,971.49
2018-02-09T08:04:26.395Z,971.47
2018-02-09T08:05:26.378Z,971.49
2018-02-09T08:06:26.352Z,971.44
2018-02-09T08:07:26.334Z,971.44
2018-02-09T08:08:26.323Z,971.45
2018-02-09T08:09:26.300Z,971.45
2018-02-09T08:10:26.288Z,971.45
2018-02-09T08:11:26.269Z,971.42
2018-02-09T08:12:26.246Z,971.46
2018-02-09T08:13:26.225Z,971.45
2018-02-09T08:14:26.214Z,971.45
2018-02-09T08:15:26.192Z,971.42
2018-02-09T08:16:26.176Z,971.41
2018-02-09T08:17:26.163Z,971.46
2018-02-09T08:18:26.142Z,971.44
2018-02-09T08:19:26.119Z,971.42
2018-02-09T08:20:26.099Z,971.39
2018-02-09T08:21:26.089Z,971.40
2018-02-09T08:22:26.068Z,971.37
2018-02-09T08:23:26.049Z,971.36
2018-02-09T08:24:26.027Z,971.35
2018-02-09T08:25:26.010Z,971.37
2018-02-09T08:26:25.991Z,971.29
2018-02-09T08:27:25.979Z,971.29
2018-02-09T08:28:25.961Z,971.29
2018-02-09T08:29:25.944Z,971.31
2018-02-09T08:30:25.924Z,971.30
2018-02-09T08:31:25.910Z,971.31
2018-02-09T08:32:25.882Z,971.32
2018-02-09T08:33:25.863Z,971.30
2018-02-09T08:34:25.849Z,971.33
2018-02-09T08:35:25.833Z,971.32
2018-02-09T08:36:25.817Z,971.27
2018-02-09T08:37:25.792Z,971.24
2018-02-09T08:38:25.776Z,971.29
2018-02-09T08:39:25.754Z,971.23
2018-02-09T08:40:25.740Z,971.21
2018-02-09T08:41:25.719Z,971.23
2018-02-09T08:42:25.701Z,971.19
2018-02-09T08:43:25.681Z,971.27
2018-02-09T08:44:25.669Z,971.25
2018-02-09T08:45:25.645Z,971.23
2018-02-09T08:46:25.632Z,971.19
2018-02-09T08:47:25.609Z,971.18
2018-02-09T08:48:25.593Z,971.16
2018-02-09T08:49:25.574Z,971.16
2018-02-09T08:50:25.560Z,971.16
2018-02-09T08:51:25.535Z,971.16
2018-02-09T08:52:25.524Z,971.16
2018-02-09T08:53:25.501Z,971.18
2018-02-09T08:54:25.484Z,971.15
2018-02-09T08:55:25.464Z,971.16
2018-02-09T08:56:25.447Z,971.13
2018-02-09T08:57:25.433Z,971.13
2018-02-09T08:58:25.419Z,971.13
2018-02-09T08:59:25.416Z,971.11
2018-02-09T09:00:25.380Z,971.12
2018-02-09T09:01:25.357Z,971.09
2018-02-09T09:02:25.339Z,971.11
2018-02-09T09:03:25.330Z,971.09
2018-02-09T09:04:25.395Z,971.07
2018-02-09T09:05:25.284Z,971.07
2018-02-09T09:06:25.267Z,971.08
2018-02-09T09:07:25.253Z,971.04
2018-02-09T09:08:25.237Z,971.06
2018-02-09T09:09:25.219Z,971.10
2018-02-09T09:10:25.194Z,971.06
2018-02-09T09:11:25.178Z,971.04
2018-02-09T09:12:25.170Z,971.02
2018-02-09T09:13:25.164Z,970.99
2018-02-09T09:14:25.126Z,970.98
2018-02-09T09:15:25.156Z,971.01
2018-02-09T09:16:25.094Z,971.01
2018-02-09T09:17:25.075Z,971.00
2018-02-09T09:18:25.054Z,970.99
2018-02-09T09:19:25.064Z,971.00
2018-02-09T09:20:25.020Z,970.94
2018-02-09T09:21:25.009Z,970.93
2018-02-09T09:22:24.986Z,970.90
2018-02-09T09:23:24.989Z,970.89
2018-02-09T09:24:24.948Z,970.89
2018-02-09T09:25:24.934Z,970.89
2018-02-09T09:26:24.922Z,970.88
2018-02-09T09:27:24.896Z,970.89
2018-02-09T09:28:24.886Z,970.87
2018-02-09T09:29:24.876Z,970.88
2018-02-09T09:30:24.846Z,970.82
2018-02-09T09:31:24.827Z,970.84
2018-02-09T09:32:24.812Z,970.84
2018-02-09T09:33:24.793Z,970.83
2018-02-09T09:34:24.776Z,970.82
2018-02-09T09:35:24.760Z,970.83
2018-02-09T09:36:24.744Z,970.81
2018-02-09T09:37:24.730Z,970.81
2018-02-09T09:38:24.705Z,970.82
2018-02-09T09:39:24.704Z,970.85
2018-02-09T09:40:24.674Z,970.86
2018-02-09T09:41:24.655Z,970.87
2018-02-09T09:42:24.637Z,970.86
2018-02-09T09:43:24.619Z,970.83
2018-02-09T09:44:24.602Z,970.83
2018-02-09T09:45:24.592Z,970.84
2018-02-09T09:46:24.567Z,970.84
2018-02-09T09:47:24.553Z,970.83
2018-02-09T09:48:24.533Z,970.89
2018-02-09T09:49:24.522Z,970.82
2018-02-09T09:50:24.510Z,970.84
2018-02-09T09:51:24.483Z,970.86
2018-02-09T09:52:24.465Z,970.86
2018-02-09T09:53:24.449Z,970.85
2018-02-09T09:54:24.437Z,970.85
2018-02-09T09:55:24.419Z,970.86
2018-02-09T09:56:24.401Z,970.79
2018-02-09T09:57:24.383Z,970.83
2018-02-09T09:58:24.362Z,970.82
2018-02-09T09:59:24.345Z,970.82
2018-02-09T10:00:24.329Z,970.81
2018-02-09T10:01:24.312Z,970.76
2018-02-09T10:02:24.294Z,970.80
2018-02-09T10:03:24.282Z,970.79
2018-02-09T10:04:24.293Z,970.74
2018-02-09T10:05:24.246Z,970.78
2018-02-09T10:06:24.226Z,970.77
2018-02-09T10:07:24.217Z,970.75
2018-02-09T10:08:24.197Z,970.74
2018-02-09T10:09:24.185Z,970.77
2018-02-09T10:10:24.161Z,970.77
2018-02-09T10:11:24.141Z,970.72
2018-02-09T10:12:24.124Z,970.72
2018-02-09T10:13:24.108Z,970.73
2018-02-09T10:14:24.091Z,970.69
2018-02-09T10:15:24.076Z,970.71
2018-02-09T10:16:24.056Z,970.68
2018-02-09T10:17:24.042Z,970.64
2018-02-09T10:18:24.022Z,970.61
2018-02-09T10:19:24.005Z,970.62
2018-02-09T10:20:23.993Z,970.66
2018-02-09T10:21:23.978Z,970.61
2018-02-09T10:22:23.961Z,970.59
2018-02-09T10:23:23.943Z,970.59
2018-02-09T10:24:23.930Z,970.55
2018-02-09T10:25:23.905Z,970.58
2018-02-09T10:26:23.901Z,970.59
2018-02-09T10:27:23.877Z,970.54
2018-02-09T10:28:23.857Z,970.52
2018-02-09T10:29:23.868Z,970.56
2018-02-09T10:30:23.820Z,970.54
2018-02-09T10:31:23.813Z,970.51
2018-02-09T10:32:23.790Z,970.53
2018-02-09T10:33:23.770Z,970.50
2018-02-09T10:34:23.759Z,970.48
2018-02-09T10:35:23.739Z,970.48
2018-02-09T10:36:23.720Z,970.43
2018-02-09T10:37:23.704Z,970.42
2018-02-09T10:38:23.688Z,970.42
2018-02-09T10:39:23.669Z,970.40
2018-02-09T10:40:23.653Z,970.41
2018-02-09T10:41:23.642Z,970.39
2018-02-09T10:42:23.618Z,970.37
2018-02-09T10:43:23.605Z,970.37
2018-02-09T10:44:23.591Z,970.36
2018-02-09T10:45:23.599Z,970.35
2018-02-09T10:46:23.554Z,970.34
2018-02-09T10:47:23.538Z,970.35
2018-02-09T10:48:23.527Z,970.33
2018-02-09T10:49:23.511Z,970.34
2018-02-09T10:50:23.488Z,970.35
2018-02-09T10:51:23.485Z,970.29
2018-02-09T10:52:23.453Z,970.30
2018-02-09T10:53:23.437Z,970.30
2018-02-09T10:54:23.424Z,970.29
2018-02-09T10:55:23.405Z,970.29
2018-02-09T10:56:23.393Z,970.27
2018-02-09T10:57:23.371Z,970.29
2018-02-09T10:58:23.360Z,970.23
2018-02-09T10:59:23.339Z,970.24
2018-02-09T11:00:23.325Z,970.22
2018-02-09T11:01:23.308Z,970.21
2018-02-09T11:02:23.295Z,970.17
2018-02-09T11:03:23.281Z,970.14
2018-02-09T11:04:23.258Z,970.18
2018-02-09T11:05:23.250Z,970.19
2018-02-09T11:06:23.232Z,970.16
2018-02-09T11:07:23.209Z,970.15
2018-02-09T11:08:23.194Z,970.13
2018-02-09T11:09:23.184Z,970.12
2018-02-09T11:10:23.161Z,970.12
2018-02-09T11:11:23.154Z,970.16
2018-02-09T11:12:23.133Z,970.12
2018-02-09T11:13:23.118Z,970.11
2018-02-09T11:14:23.095Z,970.10
2018-02-09T11:15:23.080Z,970.11
2018-02-09T11:16:23.069Z,970.08
2018-02-09T11:17:23.049Z,970.06
2018-02-09T11:18:23.035Z,970.05
2018-02-09T11:19:23.016Z,970.04
2018-02-09T11:20:23.008Z,969.99
2018-02-09T11:21:22.986Z,969.95
2018-02-09T11:22:22.971Z,969.98
2018-02-09T11:23:22.953Z,969.98
2018-02-09T11:24:22.940Z,969.97
2018-02-09T11:25:22.918Z,969.94
2018-02-09T11:26:22.907Z,969.97
2018-02-09T11:27:22.895Z,969.96
2018-02-09T11:28:22.875Z,969.92
2018-02-09T11:29:22.855Z,969.92
2018-02-09T11:30:22.840Z,969.93
2018-02-09T11:31:22.824Z,969.91
2018-02-09T11:32:22.810Z,969.89
2018-02-09T11:33:22.797Z,969.91
2018-02-09T11:34:22.775Z,969.91
2018-02-09T11:35:22.759Z,969.86
2018-02-09T11:36:22.744Z,969.92
2018-02-09T11:37:22.730Z,969.86
2018-02-09T11:38:22.711Z,969.85
2018-02-09T11:39:22.700Z,969.83
2018-02-09T11:40:22.681Z,969.82
2018-02-09T11:41:22.665Z,969.80
2018-02-09T11:42:22.646Z,969.80
2018-02-09T11:43:22.634Z,969.78
2018-02-09T11:44:22.622Z,969.76
2018-02-09T11:45:22.601Z,969.79
2018-02-09T11:46:22.589Z,969.77
2018-02-09T11:47:22.572Z,969.75
2018-02-09T11:48:22.557Z,969.74
2018-02-09T11:49:22.540Z,969.76
2018-02-09T11:50:22.521Z,969.75
2018-02-09T11:51:22.516Z,969.72
2018-02-09T11:52:22.496Z,969.75
2018-02-09T11:53:22.471Z,969.73
2018-02-09T11:54:22.458Z,969.71
2018-02-09T11:55:22.471Z,969.69
2018-02-09T11:56:22.424Z,969.67
2018-02-09T11:57:22.407Z,969.68
2018-02-09T11:58:22.391Z,969.62
2018-02-09T11:59:22.375Z,969.66
2018-02-09T12:00:22.361Z,969.64
2018-02-09T12:01:22.345Z,969.68
2018-02-09T12:02:22.374Z,969.66
2018-02-09T12:03:22.313Z,969.68
2018-02-09T12:04:22.300Z,969.64
2018-02-09T12:05:22.280Z,969.66
2018-02-09T12:06:22.272Z,969.66
2018-02-09T12:07:22.251Z,969.65
2018-02-09T12:08:22.234Z,969.66
2018-02-09T12:09:22.226Z,969.64
2018-02-09T12:10:22.206Z,969.64
2018-02-09T12:11:22.184Z,969.65
2018-02-09T12:12:22.171Z,969.59
2018-02-09T12:13:22.153Z,969.62
2018-02-09T12:14:22.136Z,969.62
2018-02-09T12:15:22.126Z,969.61
2018-02-09T12:16:22.105Z,969.61
2018-02-09T12:17:22.094Z,969.61
2018-02-09T12:18:22.073Z,969.58
2018-02-09T12:19:22.057Z,969.57
2018-02-09T12:20:22.042Z,969.59
2018-02-09T12:21:22.032Z,969.57
2018-02-09T12:22:22.014Z,969.58
2018-02-09T12:23:22.000Z,969.58
2018-02-09T12:24:21.982Z,969.56
2018-02-09T12:25:21.964Z,969.57
2018-02-09T12:26:21.947Z,969.53
2018-02-09T12:27:21.932Z,969.52
2018-02-09T12:28:21.913Z,969.46